Time;durP1;ratioP1;P1;durP2;ratioP2;P2;SDS_P1;SDS_P2;PMS_P1;PMS_P2;Temp;Humidity;BMP_temperature;BMP_pressure;BME280_temperature;BME280_humidity;BME280_pressure;Samples;Min_cycle;Max_cycle;Signal;HPM_P1;HPM_P2
2022/04/28 00:01:18;;;;;;;15.32;6.95;;;;;;;;;;5004693;28;20128;-64
2022/04/28 00:03:46;;;;;;;16.70;7.45;;;;;;;;;;5003305;28;20049;-64
2022/04/28 00:06:16;;;;;;;16.50;6.97;;;;;;;;;;5003025;28;20572;-64
2022/04/28 00:08:44;;;;;;;14.95;7.13;;;;;;;;;;5002515;28;20143;-64
2022/04/28 00:11:13;;;;;;;12.70;7.05;;;;;;;;;;5005602;28;20058;-64
2022/04/28 00:13:41;;;;;;;14.00;7.07;;;;;;;;;;5004511;28;20129;-64
2022/04/28 00:16:09;;;;;;;17.38;7.57;;;;;;;;;;5005227;28;20113;-64
2022/04/28 00:18:38;;;;;;;16.13;7.40;;;;;;;;;;5003975;28;20050;-64
2022/04/28 00:21:09;;;;;;;13.45;6.13;;;;;;;;;;5004034;28;20125;-64
2022/04/28 00:23:39;;;;;;;14.95;7.10;;;;;;;;;;5002367;28;20053;-63
2022/04/28 00:26:07;;;;;;;14.52;7.05;;;;;;;;;;5001164;28;20053;-64
2022/04/28 00:28:35;;;;;;;15.65;7.45;;;;;;;;;;5003216;28;20046;-63
2022/04/28 00:31:07;;;;;;;12.15;6.55;;;;;;;;;;5002639;28;20141;-64
2022/04/28 00:33:35;;;;;;;15.98;6.90;;;;;;;;;;5002694;28;20054;-66
2022/04/28 00:36:06;;;;;;;13.93;6.78;;;;;;;;;;5002843;28;20046;-64
2022/04/28 00:38:35;;;;;;;17.27;7.15;;;;;;;;;;5001640;28;20136;-64
2022/04/28 00:41:08;;;;;;;14.50;6.80;;;;;;;;;;5004170;28;20093;-64
2022/04/28 00:43:49;;;;;;;12.00;6.25;;;;;;;;;;5000453;28;20132;-64
2022/04/28 00:46:17;;;;;;;13.88;6.75;;;;;;;;;;5002647;28;20150;-66
2022/04/28 00:51:32;;;;;;;14.27;6.00;;;;;;;;;;5002564;28;20066;-64
2022/04/28 00:54:01;;;;;;;15.48;6.95;;;;;;;;;;5000964;28;20046;-63
2022/04/28 00:56:31;;;;;;;15.20;6.57;;;;;;;;;;4999224;28;20132;-64
2022/04/28 00:59:02;;;;;;;16.27;7.38;;;;;;;;;;5003198;28;20449;-63
2022/04/28 01:01:30;;;;;;;14.50;6.95;;;;;;;;;;5003082;28;20053;-65
2022/04/28 01:03:59;;;;;;;15.25;6.90;;;;;;;;;;5001115;28;20508;-63
2022/04/28 01:06:28;;;;;;;14.00;6.45;;;;;;;;;;5000602;28;20168;-64
2022/04/28 01:08:57;;;;;;;12.05;6.32;;;;;;;;;;4999164;28;20561;-66
2022/04/28 01:11:27;;;;;;;16.63;7.47;;;;;;;;;;5003549;28;20057;-64
2022/04/28 01:13:57;;;;;;;13.98;6.28;;;;;;;;;;5001639;28;20052;-64
2022/04/28 01:16:25;;;;;;;16.73;7.05;;;;;;;;;;5001227;28;20133;-64
2022/04/28 01:18:53;;;;;;;13.73;7.07;;;;;;;;;;5001996;28;20049;-64
2022/04/28 01:21:23;;;;;;;15.18;6.45;;;;;;;;;;4998954;28;20070;-65
2022/04/28 01:23:52;;;;;;;15.27;6.70;;;;;;;;;;5002446;28;20085;-66
2022/04/28 01:26:21;;;;;;;13.35;6.25;;;;;;;;;;5001301;28;20573;-64
2022/04/28 01:28:49;;;;;;;13.90;6.45;;;;;;;;;;5002396;28;20132;-65
2022/04/28 01:31:18;;;;;;;13.68;6.90;;;;;;;;;;5003093;28;20588;-65
2022/04/28 01:33:46;;;;;;;16.70;7.53;;;;;;;;;;5000247;28;20490;-64
2022/04/28 01:36:14;;;;;;;12.15;6.63;;;;;;;;;;5001313;28;20121;-65
2022/04/28 01:38:44;;;;;;;12.30;6.55;;;;;;;;;;5000338;28;20057;-64
2022/04/28 01:41:12;;;;;;;15.73;7.88;;;;;;;;;;5001507;28;20644;-65
2022/04/28 01:43:41;;;;;;;17.40;8.30;;;;;;;;;;5000148;28;20501;-64
2022/04/28 01:46:10;;;;;;;13.95;6.35;;;;;;;;;;5000202;28;20058;-66
2022/04/28 01:48:38;;;;;;;15.88;7.05;;;;;;;;;;4998929;28;20053;-64
2022/04/28 01:56:43;;;;;;;13.95;6.25;;;;;;;;;;4998090;28;20501;-66
2022/04/28 01:59:11;;;;;;;13.75;6.50;;;;;;;;;;5001130;28;20072;-64
2022/04/28 02:01:39;;;;;;;13.77;7.15;;;;;;;;;;5000331;28;21231;-64
2022/04/28 02:04:08;;;;;;;13.73;7.03;;;;;;;;;;5001146;28;20057;-65
2022/04/28 02:06:36;;;;;;;20.02;7.32;;;;;;;;;;4999801;28;20081;-64
2022/04/28 02:09:06;;;;;;;19.35;7.38;;;;;;;;;;4999675;28;20068;-64
2022/04/28 02:11:34;;;;;;;14.27;6.43;;;;;;;;;;5001452;28;20330;-66
2022/04/28 02:14:02;;;;;;;14.75;7.30;;;;;;;;;;5001530;28;20060;-64
2022/04/28 02:16:31;;;;;;;14.40;7.35;;;;;;;;;;4999086;28;20684;-64
2022/04/28 02:18:59;;;;;;;14.55;6.47;;;;;;;;;;5002024;28;20054;-64
2022/04/28 02:21:29;;;;;;;13.23;6.38;;;;;;;;;;5000104;28;20069;-64
2022/04/28 02:23:57;;;;;;;14.13;6.70;;;;;;;;;;4999818;28;20144;-66
2022/04/28 02:26:27;;;;;;;16.00;6.97;;;;;;;;;;4986687;28;20504;-65
2022/04/28 02:28:56;;;;;;;15.13;6.63;;;;;;;;;;5000584;28;20586;-64
2022/04/28 02:31:24;;;;;;;12.88;6.18;;;;;;;;;;4997966;28;20054;-64
2022/04/28 02:33:52;;;;;;;16.70;6.95;;;;;;;;;;5000623;28;20085;-65
2022/04/28 02:36:21;;;;;;;13.20;6.45;;;;;;;;;;5000030;28;20148;-64
2022/04/28 02:38:50;;;;;;;13.13;6.10;;;;;;;;;;5000612;28;20085;-64
2022/04/28 02:41:21;;;;;;;12.50;6.05;;;;;;;;;;5000673;28;20484;-64
2022/04/28 02:43:51;;;;;;;15.88;6.53;;;;;;;;;;5000618;28;20148;-63
2022/04/28 02:46:19;;;;;;;12.40;6.35;;;;;;;;;;5001543;28;20132;-65
2022/04/28 02:48:49;;;;;;;14.07;6.30;;;;;;;;;;5001784;28;20168;-64
2022/04/28 02:51:17;;;;;;;14.75;6.82;;;;;;;;;;4999550;28;20133;-66
2022/04/28 02:53:45;;;;;;;14.50;6.78;;;;;;;;;;5000956;28;20136;-64
2022/04/28 02:56:13;;;;;;;16.48;7.28;;;;;;;;;;4999339;28;20107;-64
2022/04/28 02:58:42;;;;;;;15.93;7.05;;;;;;;;;;4999367;28;20149;-64
2022/04/28 03:01:12;;;;;;;14.57;6.85;;;;;;;;;;5001721;28;20111;-64
2022/04/28 03:03:40;;;;;;;17.85;7.20;;;;;;;;;;5000979;28;20050;-64
2022/04/28 03:11:41;;;;;;;14.63;7.40;;;;;;;;;;4998678;28;20045;-65
2022/04/28 03:14:12;;;;;;;15.18;6.80;;;;;;;;;;5000414;28;20466;-64
2022/04/28 03:16:42;;;;;;;15.65;6.68;;;;;;;;;;5001090;28;20041;-64
2022/04/28 03:19:10;;;;;;;17.73;7.57;;;;;;;;;;5002237;28;20056;-66
2022/04/28 03:21:39;;;;;;;14.65;6.85;;;;;;;;;;5004999;28;20469;-65
2022/04/28 03:24:07;;;;;;;12.55;6.07;;;;;;;;;;5004464;28;20156;-65
2022/04/28 03:26:37;;;;;;;14.10;6.78;;;;;;;;;;5001265;28;20054;-64
2022/04/28 03:29:06;;;;;;;17.33;6.95;;;;;;;;;;5001393;28;20549;-64
2022/04/28 03:31:34;;;;;;;14.02;6.50;;;;;;;;;;5000134;28;20093;-64
2022/04/28 03:34:04;;;;;;;18.77;7.13;;;;;;;;;;5004506;28;20058;-65
2022/04/28 03:36:51;;;;;;;12.35;5.75;;;;;;;;;;5005060;28;20145;-66
2022/04/28 03:39:20;;;;;;;18.30;7.80;;;;;;;;;;5002853;28;20046;-65
2022/04/28 03:41:49;;;;;;;16.25;7.18;;;;;;;;;;5004581;28;20055;-64
2022/04/28 03:44:17;;;;;;;20.50;7.95;;;;;;;;;;5004705;28;20510;-66
2022/04/28 03:46:45;;;;;;;14.55;7.07;;;;;;;;;;5005850;28;20493;-66
2022/04/28 03:49:15;;;;;;;16.17;7.30;;;;;;;;;;5004234;28;20054;-64
2022/04/28 03:51:44;;;;;;;15.82;7.47;;;;;;;;;;5004326;28;20081;-65
2022/04/28 03:54:12;;;;;;;15.02;7.25;;;;;;;;;;5003732;28;20842;-64
2022/04/28 03:56:40;;;;;;;17.65;7.80;;;;;;;;;;5002508;28;20427;-64
2022/04/28 03:59:08;;;;;;;17.58;7.65;;;;;;;;;;5002711;28;20196;-65
2022/04/28 04:01:37;;;;;;;20.95;8.07;;;;;;;;;;5002664;28;20349;-64
2022/04/28 04:04:05;;;;;;;18.80;7.95;;;;;;;;;;5003179;28;20057;-64
2022/04/28 04:06:36;;;;;;;17.23;7.72;;;;;;;;;;5003747;28;20046;-64
2022/04/28 04:09:04;;;;;;;15.57;7.22;;;;;;;;;;4999410;28;20185;-65
2022/04/28 04:11:32;;;;;;;17.52;7.47;;;;;;;;;;5003213;28;20425;-64
2022/04/28 04:14:00;;;;;;;16.17;8.15;;;;;;;;;;5005469;28;20141;-66
2022/04/28 04:16:29;;;;;;;18.30;8.30;;;;;;;;;;5003219;28;20046;-64
2022/04/28 04:18:57;;;;;;;16.13;7.40;;;;;;;;;;5003134;28;20064;-66
2022/04/28 04:21:26;;;;;;;18.60;7.88;;;;;;;;;;5004870;28;20425;-64
2022/04/28 04:23:56;;;;;;;18.50;8.30;;;;;;;;;;5000936;28;20165;-64
2022/04/28 04:26:24;;;;;;;18.90;7.88;;;;;;;;;;4998258;28;20092;-64
2022/04/28 04:28:52;;;;;;;19.60;8.43;;;;;;;;;;5000338;28;20450;-64
2022/04/28 04:34:07;;;;;;;19.38;8.52;;;;;;;;;;5002365;28;20054;-64
2022/04/28 04:36:36;;;;;;;21.88;8.75;;;;;;;;;;5001550;28;20149;-63
2022/04/28 04:39:05;;;;;;;18.88;7.28;;;;;;;;;;5002013;28;20079;-64
2022/04/28 04:41:34;;;;;;;16.65;7.60;;;;;;;;;;5000564;28;20293;-64
2022/04/28 04:44:02;;;;;;;20.75;7.97;;;;;;;;;;5002217;28;20073;-64
2022/04/28 04:46:30;;;;;;;19.88;7.75;;;;;;;;;;5003718;28;20119;-63
2022/04/28 04:48:59;;;;;;;19.38;7.68;;;;;;;;;;5001444;28;20080;-64
2022/04/28 04:51:28;;;;;;;20.90;7.93;;;;;;;;;;5004423;28;20133;-64
2022/04/28 04:53:57;;;;;;;16.73;7.82;;;;;;;;;;5004682;28;20453;-66
2022/04/28 04:56:27;;;;;;;19.00;7.85;;;;;;;;;;5000767;28;20050;-65
2022/04/28 04:58:55;;;;;;;21.58;8.00;;;;;;;;;;5000609;28;20058;-64
2022/04/28 05:01:23;;;;;;;16.73;7.43;;;;;;;;;;5003929;28;20421;-65
2022/04/28 05:03:52;;;;;;;18.63;8.02;;;;;;;;;;5000107;28;20074;-63
2022/04/28 05:06:20;;;;;;;14.38;7.22;;;;;;;;;;4998768;28;20065;-65
2022/04/28 05:08:55;;;;;;;17.42;7.20;;;;;;;;;;5000711;28;20064;-64
2022/04/28 05:11:24;;;;;;;18.40;6.80;;;;;;;;;;4998009;28;20050;-65
2022/04/28 05:13:53;;;;;;;17.02;7.55;;;;;;;;;;5003604;28;20136;-64
2022/04/28 05:16:22;;;;;;;13.07;6.00;;;;;;;;;;5001147;28;20169;-64
2022/04/28 05:18:50;;;;;;;13.07;7.32;;;;;;;;;;4999790;28;20053;-65
2022/04/28 05:21:19;;;;;;;17.30;8.30;;;;;;;;;;5003399;28;20066;-65
2022/04/28 05:23:47;;;;;;;13.40;6.60;;;;;;;;;;5004578;28;20600;-64
2022/04/28 05:26:15;;;;;;;14.38;7.07;;;;;;;;;;5012268;28;20124;-64
2022/04/28 05:28:44;;;;;;;19.30;8.00;;;;;;;;;;5010583;28;20073;-66
2022/04/28 05:31:14;;;;;;;19.98;7.90;;;;;;;;;;5009732;28;20049;-64
2022/04/28 05:33:42;;;;;;;16.95;7.65;;;;;;;;;;5011850;28;20069;-65
2022/04/28 05:36:11;;;;;;;19.40;7.70;;;;;;;;;;5011518;28;20049;-64
2022/04/28 05:38:40;;;;;;;23.85;7.63;;;;;;;;;;5010913;28;20474;-64
2022/04/28 05:41:08;;;;;;;17.92;7.80;;;;;;;;;;5011586;28;20147;-64
2022/04/28 05:46:25;;;;;;;19.60;8.75;;;;;;;;;;4997532;28;20054;-64
2022/04/28 05:48:54;;;;;;;13.43;6.72;;;;;;;;;;4992355;28;20104;-65
2022/04/28 05:51:22;;;;;;;17.77;8.05;;;;;;;;;;5002409;28;20551;-64
2022/04/28 05:53:51;;;;;;;18.92;8.48;;;;;;;;;;5003645;28;20054;-64
2022/04/28 05:56:19;;;;;;;17.35;8.63;;;;;;;;;;5006542;28;20046;-64
2022/04/28 05:58:47;;;;;;;19.63;9.13;;;;;;;;;;5006706;28;20081;-64
2022/04/28 06:01:16;;;;;;;23.40;9.43;;;;;;;;;;5010654;28;20128;-65
2022/04/28 06:03:46;;;;;;;21.13;9.07;;;;;;;;;;4992967;28;20093;-64
2022/04/28 06:06:15;;;;;;;18.15;8.27;;;;;;;;;;5011339;28;20077;-65
2022/04/28 06:08:44;;;;;;;22.30;9.88;;;;;;;;;;5010054;28;20049;-64
2022/04/28 06:11:12;;;;;;;25.38;9.45;;;;;;;;;;4992801;28;20085;-64
2022/04/28 06:13:41;;;;;;;20.38;9.98;;;;;;;;;;5003781;28;20824;-64
2022/04/28 06:16:09;;;;;;;27.38;11.60;;;;;;;;;;5000102;28;20048;-64
2022/04/28 06:18:38;;;;;;;23.52;10.70;;;;;;;;;;5009901;28;20228;-64
2022/04/28 06:21:10;;;;;;;29.85;11.52;;;;;;;;;;5002542;28;20045;-64
2022/04/28 06:23:39;;;;;;;27.05;12.18;;;;;;;;;;5008804;28;20046;-65
2022/04/28 06:26:08;;;;;;;27.63;11.63;;;;;;;;;;5007459;28;20049;-64
2022/04/28 06:28:37;;;;;;;27.48;11.50;;;;;;;;;;5007455;28;20078;-64
2022/04/28 06:31:10;;;;;;;27.75;12.80;;;;;;;;;;5010182;28;20049;-65
2022/04/28 06:33:41;;;;;;;28.17;11.95;;;;;;;;;;5006096;28;20379;-64
2022/04/28 06:36:11;;;;;;;23.60;11.13;;;;;;;;;;4995080;28;20141;-64
2022/04/28 06:38:42;;;;;;;23.38;10.30;;;;;;;;;;5002588;28;20049;-64
2022/04/28 06:41:11;;;;;;;23.10;11.82;;;;;;;;;;5011275;28;20088;-64
2022/04/28 06:43:39;;;;;;;21.70;10.65;;;;;;;;;;5004962;28;20123;-65
2022/04/28 06:46:15;;;;;;;22.88;11.50;;;;;;;;;;5011218;28;20034;-64
2022/04/28 06:48:44;;;;;;;23.48;9.77;;;;;;;;;;5009986;28;20050;-64
2022/04/28 06:51:14;;;;;;;24.98;10.95;;;;;;;;;;4997696;28;20050;-64
2022/04/28 06:53:42;;;;;;;28.10;12.13;;;;;;;;;;4998264;28;20063;-66
2022/04/28 06:56:11;;;;;;;21.60;10.68;;;;;;;;;;5013163;28;20100;-63
2022/04/28 06:58:39;;;;;;;21.48;10.80;;;;;;;;;;5011851;28;20125;-64
2022/04/28 07:01:08;;;;;;;20.25;10.07;;;;;;;;;;5006612;28;20105;-64
2022/04/28 07:03:40;;;;;;;19.25;9.40;;;;;;;;;;5010902;28;20046;-64
2022/04/28 07:06:09;;;;;;;21.55;9.63;;;;;;;;;;4999050;28;20379;-64
2022/04/28 07:08:39;;;;;;;17.98;8.85;;;;;;;;;;5007753;28;20061;-64
2022/04/28 07:11:07;;;;;;;22.13;11.52;;;;;;;;;;5014046;28;20062;-66
2022/04/28 07:13:37;;;;;;;16.50;9.10;;;;;;;;;;5005079;28;20412;-64
2022/04/28 07:16:09;;;;;;;16.40;8.50;;;;;;;;;;5006071;28;20486;-64
2022/04/28 07:18:37;;;;;;;19.92;9.40;;;;;;;;;;5010981;28;20064;-64
2022/04/28 07:21:08;;;;;;;16.50;8.57;;;;;;;;;;5006673;28;20077;-65
2022/04/28 07:23:40;;;;;;;18.80;9.45;;;;;;;;;;5014110;28;20046;-64
2022/04/28 07:26:09;;;;;;;17.13;9.57;;;;;;;;;;5013653;28;20120;-64
2022/04/28 07:28:38;;;;;;;19.85;8.65;;;;;;;;;;5012120;28;20045;-64
2022/04/28 07:31:09;;;;;;;16.45;8.23;;;;;;;;;;5003001;28;20503;-64
2022/04/28 07:33:38;;;;;;;17.75;8.30;;;;;;;;;;5012721;28;20438;-64
2022/04/28 07:36:09;;;;;;;17.45;8.68;;;;;;;;;;5013063;28;20486;-63
2022/04/28 07:38:39;;;;;;;14.77;7.60;;;;;;;;;;4999765;28;20050;-64
2022/04/28 07:41:08;;;;;;;15.07;7.50;;;;;;;;;;5012541;28;20049;-64
2022/04/28 07:43:36;;;;;;;16.58;8.13;;;;;;;;;;5011336;28;20149;-64
2022/04/28 07:46:07;;;;;;;15.38;7.88;;;;;;;;;;5005310;28;20160;-63
2022/04/28 07:48:36;;;;;;;16.25;7.65;;;;;;;;;;4995684;28;20148;-64
2022/04/28 07:51:07;;;;;;;16.55;8.27;;;;;;;;;;5009877;28;20093;-65
2022/04/28 07:53:36;;;;;;;14.18;7.53;;;;;;;;;;5006940;28;20042;-64
2022/04/28 07:56:14;;;;;;;17.80;8.57;;;;;;;;;;5012428;28;20056;-64
2022/04/28 07:58:43;;;;;;;17.00;8.90;;;;;;;;;;5008725;28;20076;-64
2022/04/28 08:01:25;;;;;;;15.48;8.20;;;;;;;;;;4999090;28;20125;-64
2022/04/28 08:03:54;;;;;;;14.55;8.40;;;;;;;;;;5012455;28;20060;-65
2022/04/28 08:06:23;;;;;;;17.48;9.48;;;;;;;;;;5003082;28;20524;-65
2022/04/28 08:08:51;;;;;;;16.52;8.27;;;;;;;;;;5002388;28;20050;-65
2022/04/28 08:11:21;;;;;;;15.43;8.23;;;;;;;;;;5003944;28;20046;-66
2022/04/28 08:13:50;;;;;;;14.50;7.75;;;;;;;;;;5001576;28;20129;-65
2022/04/28 08:16:18;;;;;;;12.55;7.03;;;;;;;;;;5002782;28;20050;-67
2022/04/28 08:18:47;;;;;;;13.27;6.60;;;;;;;;;;5008590;28;20064;-65
2022/04/28 08:21:16;;;;;;;11.48;6.13;;;;;;;;;;5008916;28;20062;-65
2022/04/28 08:23:44;;;;;;;11.32;6.40;;;;;;;;;;5011598;28;20486;-64
2022/04/28 08:26:13;;;;;;;11.65;7.10;;;;;;;;;;5012359;28;20065;-65
2022/04/28 08:28:43;;;;;;;11.10;6.28;;;;;;;;;;5007577;28;20056;-64
2022/04/28 08:31:11;;;;;;;13.77;7.18;;;;;;;;;;5003191;28;20133;-65
2022/04/28 08:33:47;;;;;;;12.93;7.00;;;;;;;;;;5000768;28;20046;-65
2022/04/28 08:36:15;;;;;;;10.38;5.97;;;;;;;;;;5006343;28;20058;-65
2022/04/28 08:38:44;;;;;;;11.68;6.18;;;;;;;;;;5012688;28;20422;-65
2022/04/28 08:41:14;;;;;;;10.65;5.63;;;;;;;;;;5011115;28;20136;-66
2022/04/28 08:43:44;;;;;;;11.52;6.05;;;;;;;;;;5009955;28;20119;-65
2022/04/28 08:48:59;;;;;;;9.20;5.55;;;;;;;;;;5011535;28;20082;-65
2022/04/28 08:51:27;;;;;;;12.45;5.88;;;;;;;;;;5000784;28;20453;-65
2022/04/28 08:53:56;;;;;;;9.00;5.35;;;;;;;;;;5001110;28;20565;-65
2022/04/28 08:56:25;;;;;;;9.90;5.00;;;;;;;;;;5010950;28;20046;-65
2022/04/28 08:58:55;;;;;;;7.70;4.97;;;;;;;;;;5012083;28;20050;-64
2022/04/28 09:01:25;;;;;;;8.27;5.03;;;;;;;;;;5005875;28;20133;-65
2022/04/28 09:03:55;;;;;;;8.52;4.80;;;;;;;;;;5012506;28;20050;-65
2022/04/28 09:06:38;;;;;;;12.32;5.53;;;;;;;;;;5007640;28;20136;-65
2022/04/28 09:09:08;;;;;;;6.82;4.75;;;;;;;;;;4994243;28;20054;-65
2022/04/28 09:11:39;;;;;;;8.40;4.90;;;;;;;;;;5007692;28;20133;-65
2022/04/28 09:14:11;;;;;;;7.63;4.95;;;;;;;;;;5009926;28;20058;-65
2022/04/28 09:16:42;;;;;;;10.43;5.57;;;;;;;;;;5014819;28;20050;-65
2022/04/28 09:19:11;;;;;;;8.95;5.05;;;;;;;;;;5009398;28;20046;-65
2022/04/28 09:21:41;;;;;;;6.95;4.70;;;;;;;;;;5006770;28;20121;-65
2022/04/28 09:24:10;;;;;;;8.38;5.10;;;;;;;;;;5003640;28;20089;-65
2022/04/28 09:26:40;;;;;;;8.02;4.72;;;;;;;;;;5007286;28;20054;-65
2022/04/28 09:29:13;;;;;;;7.88;5.00;;;;;;;;;;5010976;28;20133;-67
2022/04/28 09:31:44;;;;;;;8.68;5.10;;;;;;;;;;5006843;28;20058;-65
2022/04/28 09:34:33;;;;;;;7.10;4.30;;;;;;;;;;5007870;28;20053;-65
2022/04/28 09:37:02;;;;;;;8.75;5.07;;;;;;;;;;5012006;28;20052;-65
2022/04/28 09:42:35;;;;;;;8.43;4.82;;;;;;;;;;5010232;28;20049;-65
2022/04/28 09:45:07;;;;;;;8.52;4.60;;;;;;;;;;5008316;28;20116;-65
2022/04/28 09:47:36;;;;;;;9.40;5.07;;;;;;;;;;5002667;28;20054;-67
2022/04/28 09:50:13;;;;;;;8.95;4.45;;;;;;;;;;5000750;28;20081;-65
2022/04/28 09:52:44;;;;;;;9.02;4.18;;;;;;;;;;5010747;28;20046;-65
2022/04/28 09:55:14;;;;;;;6.13;4.00;;;;;;;;;;5002757;28;20100;-65
2022/04/28 09:57:43;;;;;;;9.95;4.20;;;;;;;;;;5009500;28;20048;-65
2022/04/28 10:00:14;;;;;;;6.22;4.05;;;;;;;;;;5008845;28;20081;-65
2022/04/28 10:02:42;;;;;;;6.28;3.60;;;;;;;;;;5009722;28;20057;-65
2022/04/28 10:05:11;;;;;;;7.35;4.10;;;;;;;;;;5005046;28;20048;-65
2022/04/28 10:07:40;;;;;;;6.75;4.07;;;;;;;;;;5008646;28;20257;-65
2022/04/28 10:10:10;;;;;;;7.63;3.67;;;;;;;;;;4997482;28;20509;-65
2022/04/28 10:12:40;;;;;;;8.88;4.63;;;;;;;;;;4999341;28;20053;-65
2022/04/28 10:15:11;;;;;;;7.88;4.80;;;;;;;;;;5007162;28;20498;-65
2022/04/28 10:17:43;;;;;;;11.23;4.68;;;;;;;;;;5000544;28;20315;-65
2022/04/28 10:20:13;;;;;;;6.97;4.38;;;;;;;;;;5002976;28;20034;-65
2022/04/28 10:23:04;;;;;;;5.75;3.63;;;;;;;;;;5006604;28;20073;-65
2022/04/28 10:34:14;;;;;;;5.30;3.38;;;;;;;;;;5001954;28;20046;-66
2022/04/28 10:36:53;;;;;;;5.70;3.35;;;;;;;;;;5006223;28;20046;-65
2022/04/28 10:39:38;;;;;;;7.40;3.63;;;;;;;;;;5007624;28;20077;-66
2022/04/28 10:42:15;;;;;;;6.85;3.45;;;;;;;;;;5005344;28;20097;-65
2022/04/28 10:44:54;;;;;;;5.65;3.83;;;;;;;;;;5006932;28;20129;-65
2022/04/28 10:47:24;;;;;;;5.05;2.92;;;;;;;;;;5006300;28;20133;-66
2022/04/28 10:49:57;;;;;;;4.60;2.90;;;;;;;;;;5003596;28;20073;-65
2022/04/28 10:52:26;;;;;;;4.97;3.08;;;;;;;;;;5003316;28;20489;-65
2022/04/28 10:54:55;;;;;;;4.75;3.45;;;;;;;;;;5008063;28;20088;-65
2022/04/28 10:57:30;;;;;;;5.25;3.35;;;;;;;;;;5008234;28;20125;-66
2022/04/28 11:00:00;;;;;;;4.80;2.80;;;;;;;;;;4988886;28;20053;-65
2022/04/28 11:02:50;;;;;;;5.72;3.40;;;;;;;;;;5008501;28;20053;-65
2022/04/28 11:05:31;;;;;;;5.25;3.25;;;;;;;;;;5007391;28;20108;-66
2022/04/28 11:08:01;;;;;;;3.25;2.20;;;;;;;;;;5002935;28;20124;-65
2022/04/28 11:10:30;;;;;;;5.22;2.65;;;;;;;;;;5005778;28;20081;-65
2022/04/28 11:13:09;;;;;;;3.78;2.65;;;;;;;;;;5006918;28;20046;-66
2022/04/28 11:15:38;;;;;;;4.60;2.90;;;;;;;;;;5007471;28;20054;-64
2022/04/28 11:18:07;;;;;;;5.55;2.78;;;;;;;;;;5006886;28;20568;-64
2022/04/28 11:20:40;;;;;;;3.45;2.25;;;;;;;;;;5009283;28;20049;-64
2022/04/28 11:23:09;;;;;;;5.80;3.20;;;;;;;;;;5009711;28;20073;-64
2022/04/28 11:25:38;;;;;;;3.65;2.42;;;;;;;;;;5007074;28;20058;-65
2022/04/28 11:28:10;;;;;;;3.63;2.65;;;;;;;;;;5007592;28;20054;-64
2022/04/28 11:30:42;;;;;;;4.03;2.60;;;;;;;;;;5003978;28;20057;-65
2022/04/28 11:33:13;;;;;;;3.83;2.33;;;;;;;;;;4999203;28;20108;-64
2022/04/28 11:35:43;;;;;;;4.25;2.40;;;;;;;;;;5000552;28;20090;-64
2022/04/28 11:38:13;;;;;;;3.75;2.33;;;;;;;;;;5002392;28;20383;-65
2022/04/28 11:40:44;;;;;;;3.80;2.60;;;;;;;;;;4998468;28;20123;-64
2022/04/28 11:43:14;;;;;;;4.63;3.17;;;;;;;;;;5003690;28;20075;-67
2022/04/28 11:45:43;;;;;;;4.57;2.80;;;;;;;;;;5002572;28;20160;-65
2022/04/28 11:48:13;;;;;;;5.85;3.30;;;;;;;;;;5005074;28;20718;-66
2022/04/28 11:50:43;;;;;;;4.47;2.92;;;;;;;;;;5000834;28;20105;-64
2022/04/28 11:53:12;;;;;;;5.00;2.83;;;;;;;;;;4999148;28;20050;-64
2022/04/28 11:55:42;;;;;;;4.32;2.83;;;;;;;;;;5010672;28;20081;-65
2022/04/28 11:58:13;;;;;;;5.68;2.67;;;;;;;;;;5009694;28;20121;-65
2022/04/28 12:00:43;;;;;;;5.25;2.50;;;;;;;;;;5004981;28;20038;-64
2022/04/28 12:03:24;;;;;;;5.72;2.72;;;;;;;;;;5006773;28;20046;-65
2022/04/28 12:05:56;;;;;;;4.03;2.70;;;;;;;;;;5012051;28;20049;-66
2022/04/28 12:08:25;;;;;;;3.72;2.70;;;;;;;;;;5011913;28;20065;-65
2022/04/28 12:19:24;;;;;;;4.40;2.55;;;;;;;;;;5006778;28;20587;-66
2022/04/28 12:21:54;;;;;;;5.45;2.75;;;;;;;;;;5007785;28;20089;-65
2022/04/28 12:24:26;;;;;;;3.88;2.40;;;;;;;;;;5012211;28;20068;-65
2022/04/28 12:26:54;;;;;;;4.13;2.65;;;;;;;;;;5008992;28;20039;-65
2022/04/28 12:29:23;;;;;;;3.20;2.20;;;;;;;;;;5007067;28;20073;-65
2022/04/28 12:31:56;;;;;;;4.65;2.63;;;;;;;;;;5010631;28;20045;-66
2022/04/28 12:34:45;;;;;;;5.15;2.75;;;;;;;;;;5012418;28;20077;-66
2022/04/28 12:37:24;;;;;;;6.65;3.00;;;;;;;;;;4998527;28;20081;-66
2022/04/28 12:39:57;;;;;;;4.18;2.85;;;;;;;;;;5003188;28;20046;-67
2022/04/28 12:42:29;;;;;;;4.72;2.92;;;;;;;;;;5009376;28;20058;-63
2022/04/28 12:45:00;;;;;;;5.22;3.05;;;;;;;;;;4997806;28;20086;-64
2022/04/28 12:47:39;;;;;;;6.40;2.95;;;;;;;;;;5009422;28;20165;-65
2022/04/28 12:50:21;;;;;;;3.05;2.47;;;;;;;;;;4975514;28;20048;-67
2022/04/28 12:52:51;;;;;;;4.35;2.50;;;;;;;;;;5004769;28;20077;-65
2022/04/28 12:55:21;;;;;;;4.53;2.80;;;;;;;;;;5007741;28;20487;-64
2022/04/28 12:57:52;;;;;;;3.55;2.58;;;;;;;;;;5006128;28;20054;-64
2022/04/28 13:00:22;;;;;;;4.65;2.60;;;;;;;;;;4999173;28;20474;-64
2022/04/28 13:02:51;;;;;;;3.78;2.80;;;;;;;;;;4999414;28;20046;-66
2022/04/28 13:05:21;;;;;;;3.80;2.47;;;;;;;;;;5002328;28;20049;-65
2022/04/28 13:08:07;;;;;;;4.05;3.17;;;;;;;;;;5004076;28;20090;-65
2022/04/28 13:10:36;;;;;;;5.53;2.75;;;;;;;;;;4998353;28;20058;-66
2022/04/28 13:13:05;;;;;;;3.63;2.40;;;;;;;;;;5001584;28;20093;-65
2022/04/28 13:15:34;;;;;;;3.35;2.25;;;;;;;;;;4998834;28;20457;-65
2022/04/28 13:18:03;;;;;;;4.93;2.45;;;;;;;;;;4998505;28;20064;-65
2022/04/28 13:20:31;;;;;;;4.28;2.88;;;;;;;;;;5001377;28;20161;-65
2022/04/28 13:23:00;;;;;;;4.32;2.78;;;;;;;;;;4999261;28;20054;-65
2022/04/28 13:25:30;;;;;;;4.68;2.60;;;;;;;;;;5001036;28;20056;-65
2022/04/28 13:27:59;;;;;;;3.97;2.80;;;;;;;;;;4999213;28;20506;-66
2022/04/28 13:30:28;;;;;;;6.40;3.58;;;;;;;;;;5001444;28;20050;-67
2022/04/28 13:32:56;;;;;;;5.93;2.90;;;;;;;;;;5000068;28;20141;-65
2022/04/28 13:35:36;;;;;;;4.60;3.08;;;;;;;;;;4997364;28;20053;-64
2022/04/28 13:38:08;;;;;;;5.05;3.35;;;;;;;;;;4999952;28;20596;-65
2022/04/28 13:40:39;;;;;;;5.80;3.65;;;;;;;;;;4999981;28;20057;-64
2022/04/28 13:43:07;;;;;;;5.30;3.08;;;;;;;;;;5001439;28;20061;-64
2022/04/28 13:45:36;;;;;;;7.28;3.28;;;;;;;;;;5008049;28;20489;-64
2022/04/28 13:48:05;;;;;;;4.35;2.88;;;;;;;;;;5001994;28;20050;-64
2022/04/28 13:50:34;;;;;;;6.32;3.28;;;;;;;;;;4996243;28;20085;-65
2022/04/28 13:53:03;;;;;;;4.32;3.33;;;;;;;;;;5007262;28;20057;-67
2022/04/28 13:55:32;;;;;;;8.15;3.33;;;;;;;;;;4997966;28;20042;-65
2022/04/28 13:58:02;;;;;;;6.68;3.00;;;;;;;;;;5007182;28;20811;-64
2022/04/28 14:00:31;;;;;;;5.47;3.85;;;;;;;;;;5004599;28;20422;-65
2022/04/28 14:03:00;;;;;;;4.20;3.00;;;;;;;;;;4999074;28;20114;-64
2022/04/28 14:05:29;;;;;;;4.95;3.15;;;;;;;;;;5005814;28;20264;-65
2022/04/28 14:07:58;;;;;;;4.22;3.08;;;;;;;;;;5008021;28;20053;-64
2022/04/28 14:10:27;;;;;;;5.55;3.58;;;;;;;;;;5004218;28;20588;-65
2022/04/28 14:12:57;;;;;;;4.20;2.88;;;;;;;;;;5008085;28;20386;-65
2022/04/28 14:15:27;;;;;;;5.57;2.83;;;;;;;;;;5005645;28;20046;-65
2022/04/28 14:17:56;;;;;;;5.28;2.47;;;;;;;;;;4999565;28;20053;-67
2022/04/28 14:20:25;;;;;;;4.30;2.90;;;;;;;;;;4995599;28;20537;-64
2022/04/28 14:22:54;;;;;;;4.93;2.40;;;;;;;;;;5004895;28;20053;-65
2022/04/28 14:25:23;;;;;;;5.90;3.03;;;;;;;;;;5009277;28;20425;-65
2022/04/28 14:27:52;;;;;;;4.60;2.92;;;;;;;;;;5009783;28;20509;-65
2022/04/28 14:30:23;;;;;;;5.18;2.80;;;;;;;;;;5006041;28;20072;-66
2022/04/28 14:32:57;;;;;;;5.85;2.97;;;;;;;;;;5005755;28;20053;-65
2022/04/28 14:35:30;;;;;;;3.97;2.72;;;;;;;;;;5005519;28;20054;-65
2022/04/28 14:37:59;;;;;;;6.95;3.47;;;;;;;;;;5007655;28;20049;-66
2022/04/28 14:40:28;;;;;;;5.55;3.33;;;;;;;;;;5004865;28;20081;-65
2022/04/28 14:42:57;;;;;;;5.03;2.28;;;;;;;;;;5005041;28;20042;-66
2022/04/28 14:45:26;;;;;;;6.18;3.30;;;;;;;;;;5008269;28;20046;-67
2022/04/28 14:47:56;;;;;;;4.35;2.60;;;;;;;;;;5004593;28;20046;-67
2022/04/28 14:53:36;;;;;;;4.80;3.15;;;;;;;;;;5005140;28;21369;-67
2022/04/28 14:56:08;;;;;;;4.38;2.50;;;;;;;;;;5009745;28;20100;-69
2022/04/28 14:58:37;;;;;;;5.80;3.47;;;;;;;;;;5004222;28;20057;-68
2022/04/28 15:01:12;;;;;;;5.88;2.90;;;;;;;;;;5005415;28;20505;-68
2022/04/28 15:03:44;;;;;;;7.15;2.90;;;;;;;;;;5009950;28;20062;-67
2022/04/28 15:06:13;;;;;;;4.05;2.65;;;;;;;;;;5007098;28;20057;-67
2022/04/28 15:08:42;;;;;;;3.83;2.47;;;;;;;;;;5009655;28;20061;-69
2022/04/28 15:11:15;;;;;;;5.15;2.88;;;;;;;;;;5009574;28;20489;-67
2022/04/28 15:13:44;;;;;;;4.25;2.80;;;;;;;;;;5008102;28;20061;-66
2022/04/28 15:16:13;;;;;;;3.33;2.53;;;;;;;;;;5005147;28;20483;-66
2022/04/28 15:18:46;;;;;;;4.10;2.67;;;;;;;;;;5011259;28;20060;-67
2022/04/28 15:21:15;;;;;;;4.30;2.70;;;;;;;;;;5010711;28;20038;-67
2022/04/28 15:23:44;;;;;;;5.32;3.55;;;;;;;;;;5014203;28;20046;-66
2022/04/28 15:26:13;;;;;;;7.05;3.22;;;;;;;;;;5009241;28;20181;-68
2022/04/28 15:28:42;;;;;;;4.30;2.95;;;;;;;;;;5007819;28;20096;-66
2022/04/28 15:31:14;;;;;;;4.00;2.90;;;;;;;;;;5007782;28;20121;-65
2022/04/28 15:33:43;;;;;;;4.93;3.15;;;;;;;;;;5013989;28;20053;-67
2022/04/28 15:36:13;;;;;;;4.20;2.80;;;;;;;;;;5011907;28;20054;-65
2022/04/28 15:38:42;;;;;;;3.10;2.28;;;;;;;;;;5008817;28;20053;-67